Fort Lauderdale Hollywood International Airport Fort Lauderdale US
ICAO: KFLL
IATA: FLL
Category: Large
Scheduled Services: Yes

Elevation: 9 ft
TransAlt. 18000 ft.

Airport Communications:
MIAMI APP:118.1
ATIS:135
CLNC DEL:128.4
MIAMI DEP:119.7
GND:121.4
TWR:119.3
UNICOM:122.95

KFLL Zoom In..

If Map Doesn't Load, Click Here

Runways:

(A) RW 10L length 9000 ft width 150 ft
ILS 110.10 / hdg 96

(B) RW 10R length 5276 ft width 100 ft
---- / hdg 96

(C) RW 28L length 5276 ft width 100 ft
---- / hdg 276

(D) RW 28R length 9000 ft width 150 ft
ILS 110.70 / hdg 276

Location; KFLL
Day. 21 / Time. 13.53 Zulu
* Altimeter: 30.05
* Temperature: 30° c. 86°f.
* Wind from: 090° Speed 08 kn.
Dewpoint: 26° c.
Visibility: 10 Statute Miles.
Clouds: Scattered 2900 ft.
Clouds: Scattered 12000 ft.
Conditions: Towering CB.

KFLL 211353Z 09008KT 10SM SCT029TCU SCT120 30/26 A3005 RMK AO2 SLP176 TCU SE T03000256


Wind From 090°
Speed 08 kn.

 
 
jpsmedia.com for Web Design worldairports.se 2018   terms of use